sensor_id;sensor_type;location;lat;lon;timestamp;pressure;altitude;pressure_sealevel;temperature;humidity
41898;BME280;27576;53.366;-1.498;2022-11-15T00:00:20;98789.16;;;9.34;100.00
41898;BME280;27576;53.366;-1.498;2022-11-15T00:02:45;98782.34;;;9.23;100.00
41898;BME280;27576;53.366;-1.498;2022-11-15T00:05:11;98763.50;;;9.10;100.00
41898;BME280;27576;53.366;-1.498;2022-11-15T00:07:36;98784.13;;;9.15;100.00
41898;BME280;27576;53.366;-1.498;2022-11-15T00:10:02;98751.59;;;8.92;100.00
41898;BME280;27576;53.366;-1.498;2022-11-15T00:12:28;98766.16;;;8.99;100.00
41898;BME280;27576;53.366;-1.498;2022-11-15T00:14:53;98759.31;;;8.95;100.00
41898;BME280;27576;53.366;-1.498;2022-11-15T00:17:19;98773.03;;;9.02;100.00
41898;BME280;27576;53.366;-1.498;2022-11-15T00:19:44;98755.94;;;8.89;100.00
41898;BME280;27576;53.366;-1.498;2022-11-15T00:22:10;98744.78;;;8.80;100.00
41898;BME280;27576;53.366;-1.498;2022-11-15T00:24:35;98758.53;;;8.82;100.00
41898;BME280;27576;53.366;-1.498;2022-11-15T00:27:01;98755.13;;;8.77;100.00
41898;BME280;27576;53.366;-1.498;2022-11-15T00:29:26;98763.72;;;8.82;100.00
41898;BME280;27576;53.366;-1.498;2022-11-15T00:31:52;98763.75;;;8.78;100.00
41898;BME280;27576;53.366;-1.498;2022-11-15T00:34:17;98734.59;;;8.59;100.00
41898;BME280;27576;53.366;-1.498;2022-11-15T00:36:43;98754.31;;;8.68;100.00
41898;BME280;27576;53.366;-1.498;2022-11-15T00:39:08;98731.19;;;8.54;100.00
41898;BME280;27576;53.366;-1.498;2022-11-15T00:41:34;98750.06;;;8.62;100.00
41898;BME280;27576;53.366;-1.498;2022-11-15T00:43:59;98733.78;;;8.48;100.00
41898;BME280;27576;53.366;-1.498;2022-11-15T00:46:24;98721.78;;;8.45;100.00
41898;BME280;27576;53.366;-1.498;2022-11-15T00:48:50;98719.19;;;8.41;100.00
41898;BME280;27576;53.366;-1.498;2022-11-15T00:51:15;98714.91;;;8.35;100.00
41898;BME280;27576;53.366;-1.498;2022-11-15T00:53:40;98724.34;;;8.41;100.00
41898;BME280;27576;53.366;-1.498;2022-11-15T00:56:06;98719.19;;;8.41;100.00
41898;BME280;27576;53.366;-1.498;2022-11-15T00:58:32;98686.63;;;8.18;100.00
41898;BME280;27576;53.366;-1.498;2022-11-15T01:01:09;98680.59;;;8.18;100.00
41898;BME280;27576;53.366;-1.498;2022-11-15T01:03:35;98685.75;;;8.18;100.00
41898;BME280;27576;53.366;-1.498;2022-11-15T01:06:00;98672.88;;;8.13;100.00
41898;BME280;27576;53.366;-1.498;2022-11-15T01:08:26;98677.19;;;8.14;100.00
41898;BME280;27576;53.366;-1.498;2022-11-15T01:10:52;98671.16;;;8.12;100.00
41898;BME280;27576;53.366;-1.498;2022-11-15T01:13:17;98679.72;;;8.17;100.00
41898;BME280;27576;53.366;-1.498;2022-11-15T01:15:43;98682.34;;;8.14;100.00
41898;BME280;27576;53.366;-1.498;2022-11-15T01:18:09;98665.19;;;8.04;100.00
41898;BME280;27576;53.366;-1.498;2022-11-15T01:20:39;98667.75;;;8.04;100.00
41898;BME280;27576;53.366;-1.498;2022-11-15T01:23:04;98660.91;;;7.94;100.00
41898;BME280;27576;53.366;-1.498;2022-11-15T01:25:30;98672.94;;;8.01;100.00
41898;BME280;27576;53.366;-1.498;2022-11-15T01:27:55;98644.63;;;7.87;100.00
41898;BME280;27576;53.366;-1.498;2022-11-15T01:30:20;98630.06;;;7.78;100.00
41898;BME280;27576;53.366;-1.498;2022-11-15T01:32:46;98633.50;;;7.73;100.00
41898;BME280;27576;53.366;-1.498;2022-11-15T01:35:11;98640.38;;;7.78;100.00
41898;BME280;27576;53.366;-1.498;2022-11-15T01:37:36;98608.66;;;7.56;100.00
41898;BME280;27576;53.366;-1.498;2022-11-15T01:40:02;98616.38;;;7.61;100.00
41898;BME280;27576;53.366;-1.498;2022-11-15T01:42:28;98649.81;;;7.78;100.00
41898;BME280;27576;53.366;-1.498;2022-11-15T01:44:53;98628.38;;;7.71;100.00
41898;BME280;27576;53.366;-1.498;2022-11-15T01:47:25;98606.06;;;7.58;100.00
41898;BME280;27576;53.366;-1.498;2022-11-15T01:50:01;98632.66;;;7.75;100.00
41898;BME280;27576;53.366;-1.498;2022-11-15T01:52:29;98639.53;;;7.75;100.00
41898;BME280;27576;53.366;-1.498;2022-11-15T01:55:12;98626.66;;;7.72;100.00
41898;BME280;27576;53.366;-1.498;2022-11-15T01:57:40;98582.94;;;7.46;100.00
41898;BME280;27576;53.366;-1.498;2022-11-15T02:00:07;98580.38;;;7.44;100.00
41898;BME280;27576;53.366;-1.498;2022-11-15T02:02:33;98588.06;;;7.53;100.00
41898;BME280;27576;53.366;-1.498;2022-11-15T02:04:59;98618.09;;;7.65;100.00
41898;BME280;27576;53.366;-1.498;2022-11-15T02:07:25;98607.78;;;7.67;100.00
41898;BME280;27576;53.366;-1.498;2022-11-15T02:09:51;98604.31;;;7.69;100.00
41898;BME280;27576;53.366;-1.498;2022-11-15T02:12:19;98587.19;;;7.59;100.00
41898;BME280;27576;53.366;-1.498;2022-11-15T02:14:49;98558.03;;;7.48;100.00
41898;BME280;27576;53.366;-1.498;2022-11-15T02:20:26;98581.94;;;7.79;100.00
41898;BME280;27576;53.366;-1.498;2022-11-15T02:28:50;98523.59;;;7.58;100.00
41898;BME280;27576;53.366;-1.498;2022-11-15T02:31:33;98566.41;;;7.86;100.00
41898;BME280;27576;53.366;-1.498;2022-11-15T02:42:11;98507.25;;;7.62;100.00
41898;BME280;27576;53.366;-1.498;2022-11-15T02:45:03;98518.34;;;7.76;100.00
41898;BME280;27576;53.366;-1.498;2022-11-15T02:47:34;98484.94;;;7.58;100.00
41898;BME280;27576;53.366;-1.498;2022-11-15T02:50:06;98512.31;;;7.79;100.00
41898;BME280;27576;53.366;-1.498;2022-11-15T02:52:33;98514.06;;;7.78;100.00
41898;BME280;27576;53.366;-1.498;2022-11-15T02:55:00;98504.59;;;7.73;100.00
41898;BME280;27576;53.366;-1.498;2022-11-15T02:57:42;98486.59;;;7.68;100.00
41898;BME280;27576;53.366;-1.498;2022-11-15T03:00:15;98499.47;;;7.74;100.00
41898;BME280;27576;53.366;-1.498;2022-11-15T03:08:00;98491.72;;;7.74;100.00
41898;BME280;27576;53.366;-1.498;2022-11-15T03:11:09;98476.25;;;7.73;100.00
41898;BME280;27576;53.366;-1.498;2022-11-15T03:18:56;98420.63;;;7.41;100.00
41898;BME280;27576;53.366;-1.498;2022-11-15T03:21:24;98458.28;;;7.62;100.00
41898;BME280;27576;53.366;-1.498;2022-11-15T03:23:51;98436.03;;;7.49;100.00
41898;BME280;27576;53.366;-1.498;2022-11-15T03:26:19;98421.50;;;7.40;100.00
41898;BME280;27576;53.366;-1.498;2022-11-15T03:29:04;98450.59;;;7.56;100.00
41898;BME280;27576;53.366;-1.498;2022-11-15T03:31:34;98442.03;;;7.51;100.00
41898;BME280;27576;53.366;-1.498;2022-11-15T03:34:49;98399.22;;;7.30;100.00
41898;BME280;27576;53.366;-1.498;2022-11-15T03:37:14;98429.13;;;7.52;100.00
41898;BME280;27576;53.366;-1.498;2022-11-15T03:39:40;98397.47;;;7.36;100.00
41898;BME280;27576;53.366;-1.498;2022-11-15T03:47:50;98381.16;;;7.39;100.00
41898;BME280;27576;53.366;-1.498;2022-11-15T03:50:19;98412.72;;;7.64;100.00
41898;BME280;27576;53.366;-1.498;2022-11-15T03:52:46;98412.69;;;7.69;100.00
41898;BME280;27576;53.366;-1.498;2022-11-15T03:55:16;98399.88;;;7.59;100.00
41898;BME280;27576;53.366;-1.498;2022-11-15T03:57:42;98410.13;;;7.67;100.00
41898;BME280;27576;53.366;-1.498;2022-11-15T04:00:08;98415.22;;;7.73;100.00
41898;BME280;27576;53.366;-1.498;2022-11-15T04:02:34;98378.44;;;7.53;100.00
41898;BME280;27576;53.366;-1.498;2022-11-15T04:04:59;98384.41;;;7.59;100.00
41898;BME280;27576;53.366;-1.498;2022-11-15T04:07:24;98413.50;;;7.78;100.00
41898;BME280;27576;53.366;-1.498;2022-11-15T04:09:50;98409.19;;;7.79;100.00
41898;BME280;27576;53.366;-1.498;2022-11-15T04:12:34;98397.97;;;7.81;100.00
41898;BME280;27576;53.366;-1.498;2022-11-15T04:17:46;98390.25;;;7.80;100.00
41898;BME280;27576;53.366;-1.498;2022-11-15T04:20:19;98382.50;;;7.83;100.00
41898;BME280;27576;53.366;-1.498;2022-11-15T04:23:07;98391.94;;;7.84;100.00
41898;BME280;27576;53.366;-1.498;2022-11-15T04:25:52;98367.09;;;7.75;100.00
41898;BME280;27576;53.366;-1.498;2022-11-15T04:28:19;98363.66;;;7.73;100.00
41898;BME280;27576;53.366;-1.498;2022-11-15T04:30:44;98356.81;;;7.72;100.00
41898;BME280;27576;53.366;-1.498;2022-11-15T04:33:10;98371.28;;;7.87;100.00
41898;BME280;27576;53.366;-1.498;2022-11-15T04:35:35;98367.00;;;7.87;100.00
41898;BME280;27576;53.366;-1.498;2022-11-15T04:38:02;98360.97;;;7.88;100.00
41898;BME280;27576;53.366;-1.498;2022-11-15T04:40:28;98346.47;;;7.78;100.00
41898;BME280;27576;53.366;-1.498;2022-11-15T04:42:53;98348.13;;;7.82;100.00
41898;BME280;27576;53.366;-1.498;2022-11-15T04:45:19;98342.97;;;7.84;100.00
41898;BME280;27576;53.366;-1.498;2022-11-15T04:47:44;98336.94;;;7.83;100.00
41898;BME280;27576;53.366;-1.498;2022-11-15T04:50:11;98320.69;;;7.78;100.00
41898;BME280;27576;53.366;-1.498;2022-11-15T04:52:42;98319.75;;;7.84;100.00
41898;BME280;27576;53.366;-1.498;2022-11-15T04:55:11;98317.19;;;7.82;100.00
41898;BME280;27576;53.366;-1.498;2022-11-15T04:57:37;98336.81;;;7.97;100.00
41898;BME280;27576;53.366;-1.498;2022-11-15T05:00:11;98343.66;;;8.00;100.00
41898;BME280;27576;53.366;-1.498;2022-11-15T05:02:37;98325.72;;;7.87;100.00
41898;BME280;27576;53.366;-1.498;2022-11-15T05:05:21;98333.34;;;8.00;100.00
41898;BME280;27576;53.366;-1.498;2022-11-15T05:07:47;98295.75;;;7.79;100.00
41898;BME280;27576;53.366;-1.498;2022-11-15T05:10:12;98287.16;;;7.77;100.00
41898;BME280;27576;53.366;-1.498;2022-11-15T05:12:37;98318.72;;;8.02;100.00
41898;BME280;27576;53.366;-1.498;2022-11-15T05:15:03;98298.25;;;7.86;100.00
41898;BME280;27576;53.366;-1.498;2022-11-15T05:17:29;98310.09;;;8.01;100.00
41898;BME280;27576;53.366;-1.498;2022-11-15T05:19:54;98297.28;;;7.95;100.00
41898;BME280;27576;53.366;-1.498;2022-11-15T05:22:20;98303.25;;;8.02;100.00
41898;BME280;27576;53.366;-1.498;2022-11-15T05:24:45;98287.84;;;7.93;100.00
41898;BME280;27576;53.366;-1.498;2022-11-15T05:27:11;98251.88;;;7.80;100.00
41898;BME280;27576;53.366;-1.498;2022-11-15T05:29:36;98265.50;;;7.95;100.00
41898;BME280;27576;53.366;-1.498;2022-11-15T05:32:03;98274.00;;;8.01;100.00
41898;BME280;27576;53.366;-1.498;2022-11-15T05:34:30;98251.81;;;7.88;100.00
41898;BME280;27576;53.366;-1.498;2022-11-15T05:36:55;98276.56;;;8.06;100.00
41898;BME280;27576;53.366;-1.498;2022-11-15T05:39:21;98238.94;;;7.85;100.00
41898;BME280;27576;53.366;-1.498;2022-11-15T05:41:52;98250.84;;;7.98;100.00
41898;BME280;27576;53.366;-1.498;2022-11-15T05:44:21;98228.63;;;7.86;100.00
41898;BME280;27576;53.366;-1.498;2022-11-15T05:46:49;98248.19;;;8.06;100.00
41898;BME280;27576;53.366;-1.498;2022-11-15T05:49:18;98237.03;;;8.01;100.00
41898;BME280;27576;53.366;-1.498;2022-11-15T05:51:45;98251.56;;;8.08;100.00
41898;BME280;27576;53.366;-1.498;2022-11-15T05:54:13;98212.28;;;7.87;100.00
41898;BME280;27576;53.366;-1.498;2022-11-15T05:56:39;98217.34;;;7.94;100.00
41898;BME280;27576;53.366;-1.498;2022-11-15T05:59:05;98237.84;;;8.06;100.00
41898;BME280;27576;53.366;-1.498;2022-11-15T06:01:32;98224.97;;;8.04;100.00
41898;BME280;27576;53.366;-1.498;2022-11-15T06:03:57;98191.63;;;7.91;100.00
41898;BME280;27576;53.366;-1.498;2022-11-15T06:06:23;98220.66;;;8.06;100.00
41898;BME280;27576;53.366;-1.498;2022-11-15T06:08:48;98205.16;;;8.08;100.00
41898;BME280;27576;53.366;-1.498;2022-11-15T06:11:13;98207.63;;;8.16;100.00
41898;BME280;27576;53.366;-1.498;2022-11-15T06:13:39;98203.41;;;8.10;100.00
41898;BME280;27576;53.366;-1.498;2022-11-15T06:16:05;98164.03;;;7.96;100.00
41898;BME280;27576;53.366;-1.498;2022-11-15T06:18:34;98197.34;;;8.14;100.00
41898;BME280;27576;53.366;-1.498;2022-11-15T06:20:59;98193.84;;;8.18;100.00
41898;BME280;27576;53.366;-1.498;2022-11-15T06:23:25;98192.97;;;8.19;100.00
41898;BME280;27576;53.366;-1.498;2022-11-15T06:25:50;98182.63;;;8.21;100.00
41898;BME280;27576;53.366;-1.498;2022-11-15T06:28:16;98166.38;;;8.12;100.00
41898;BME280;27576;53.366;-1.498;2022-11-15T06:30:41;98166.31;;;8.17;100.00
41898;BME280;27576;53.366;-1.498;2022-11-15T06:33:07;98171.38;;;8.25;100.00
41898;BME280;27576;53.366;-1.498;2022-11-15T06:35:34;98164.56;;;8.22;100.00
41898;BME280;27576;53.366;-1.498;2022-11-15T06:38:08;98167.09;;;8.25;100.00
41898;BME280;27576;53.366;-1.498;2022-11-15T06:40:36;98149.88;;;8.24;100.00
41898;BME280;27576;53.366;-1.498;2022-11-15T06:43:02;98107.28;;;7.99;100.00
41898;BME280;27576;53.366;-1.498;2022-11-15T06:45:27;98122.59;;;8.08;100.00
41898;BME280;27576;53.366;-1.498;2022-11-15T06:47:53;98135.38;;;8.19;100.00
41898;BME280;27576;53.366;-1.498;2022-11-15T06:50:19;98122.56;;;8.11;100.00
41898;BME280;27576;53.366;-1.498;2022-11-15T06:52:44;98122.53;;;8.12;100.00
41898;BME280;27576;53.366;-1.498;2022-11-15T06:55:09;98119.13;;;8.12;100.00
41898;BME280;27576;53.366;-1.498;2022-11-15T06:57:35;98090.84;;;8.06;100.00
41898;BME280;27576;53.366;-1.498;2022-11-15T07:00:04;98127.47;;;8.29;100.00
41898;BME280;27576;53.366;-1.498;2022-11-15T07:02:30;98128.31;;;8.30;100.00
41898;BME280;27576;53.366;-1.498;2022-11-15T07:04:55;98095.84;;;8.15;100.00
41898;BME280;27576;53.366;-1.498;2022-11-15T07:07:20;98076.19;;;8.08;100.00
41898;BME280;27576;53.366;-1.498;2022-11-15T07:09:46;98078.75;;;8.08;100.00
41898;BME280;27576;53.366;-1.498;2022-11-15T07:12:11;98087.19;;;8.19;100.00
41898;BME280;27576;53.366;-1.498;2022-11-15T07:14:36;98085.44;;;8.21;100.00
41898;BME280;27576;53.366;-1.498;2022-11-15T07:17:05;98088.00;;;8.23;100.00
41898;BME280;27576;53.366;-1.498;2022-11-15T07:19:31;98086.22;;;8.26;100.00
41898;BME280;27576;53.366;-1.498;2022-11-15T07:21:56;98068.41;;;8.09;100.00
41898;BME280;27576;53.366;-1.498;2022-11-15T07:24:22;98075.94;;;8.23;100.00
41898;BME280;27576;53.366;-1.498;2022-11-15T07:26:47;98081.88;;;8.28;100.00
41898;BME280;27576;53.366;-1.498;2022-11-15T07:29:12;98081.88;;;8.28;100.00
41898;BME280;27576;53.366;-1.498;2022-11-15T07:31:38;98056.31;;;8.15;100.00
41898;BME280;27576;53.366;-1.498;2022-11-15T07:34:04;98072.50;;;8.24;100.00
41898;BME280;27576;53.366;-1.498;2022-11-15T07:36:29;98054.56;;;8.17;100.00
41898;BME280;27576;53.366;-1.498;2022-11-15T07:38:54;98063.94;;;8.22;100.00
41898;BME280;27576;53.366;-1.498;2022-11-15T07:41:20;98070.72;;;8.28;100.00
41898;BME280;27576;53.366;-1.498;2022-11-15T07:43:45;98064.63;;;8.33;100.00
41898;BME280;27576;53.366;-1.498;2022-11-15T07:46:10;98038.22;;;8.18;100.00
41898;BME280;27576;53.366;-1.498;2022-11-15T07:48:37;98066.31;;;8.38;100.00
41898;BME280;27576;53.366;-1.498;2022-11-15T07:51:05;98062.81;;;8.40;100.00
41898;BME280;27576;53.366;-1.498;2022-11-15T07:53:31;98055.97;;;8.36;100.00
41898;BME280;27576;53.366;-1.498;2022-11-15T07:55:56;98055.13;;;8.35;100.00
41898;BME280;27576;53.366;-1.498;2022-11-15T07:58:21;98031.16;;;8.27;100.00
41898;BME280;27576;53.366;-1.498;2022-11-15T08:00:47;97999.56;;;8.13;100.00
41898;BME280;27576;53.366;-1.498;2022-11-15T08:03:14;98043.06;;;8.36;100.00
41898;BME280;27576;53.366;-1.498;2022-11-15T08:05:41;98022.50;;;8.31;100.00
41898;BME280;27576;53.366;-1.498;2022-11-15T08:08:09;98027.59;;;8.38;100.00
41898;BME280;27576;53.366;-1.498;2022-11-15T08:10:35;98009.56;;;8.33;100.00
41898;BME280;27576;53.366;-1.498;2022-11-15T08:13:10;98038.50;;;8.55;100.00
41898;BME280;27576;53.366;-1.498;2022-11-15T08:15:36;98006.84;;;8.44;100.00
41898;BME280;27576;53.366;-1.498;2022-11-15T08:18:09;98014.56;;;8.45;100.00
41898;BME280;27576;53.366;-1.498;2022-11-15T08:20:35;98022.19;;;8.53;100.00
41898;BME280;27576;53.366;-1.498;2022-11-15T08:23:03;98021.25;;;8.55;100.00
41898;BME280;27576;53.366;-1.498;2022-11-15T08:25:30;98024.59;;;8.62;100.00
41898;BME280;27576;53.366;-1.498;2022-11-15T08:27:59;98009.28;;;8.53;100.00
41898;BME280;27576;53.366;-1.498;2022-11-15T08:30:25;98016.88;;;8.60;100.00
41898;BME280;27576;53.366;-1.498;2022-11-15T08:32:52;97989.63;;;8.44;100.00
41898;BME280;27576;53.366;-1.498;2022-11-15T08:35:18;98007.41;;;8.61;100.00
41898;BME280;27576;53.366;-1.498;2022-11-15T08:37:44;97991.97;;;8.56;100.00
41898;BME280;27576;53.366;-1.498;2022-11-15T08:40:10;97988.66;;;8.51;100.00
41898;BME280;27576;53.366;-1.498;2022-11-15T08:42:38;98004.72;;;8.67;100.00
41898;BME280;27576;53.366;-1.498;2022-11-15T08:45:04;98001.19;;;8.73;100.00
41898;BME280;27576;53.366;-1.498;2022-11-15T08:47:29;97984.06;;;8.67;100.00
41898;BME280;27576;53.366;-1.498;2022-11-15T08:49:55;97981.47;;;8.69;100.00
41898;BME280;27576;53.366;-1.498;2022-11-15T08:52:20;97966.06;;;8.63;100.00
41898;BME280;27576;53.366;-1.498;2022-11-15T08:54:46;97971.84;;;8.75;100.00
41898;BME280;27576;53.366;-1.498;2022-11-15T08:57:12;97961.56;;;8.72;100.00
41898;BME280;27576;53.366;-1.498;2022-11-15T08:59:37;97966.59;;;8.80;100.00
41898;BME280;27576;53.366;-1.498;2022-11-15T09:02:03;97934.22;;;8.64;100.00
41898;BME280;27576;53.366;-1.498;2022-11-15T09:04:28;97943.59;;;8.69;100.00
41898;BME280;27576;53.366;-1.498;2022-11-15T09:06:54;97920.44;;;8.63;100.00
41898;BME280;27576;53.366;-1.498;2022-11-15T09:09:19;97928.94;;;8.68;100.00
41898;BME280;27576;53.366;-1.498;2022-11-15T09:11:45;97935.69;;;8.77;100.00
41898;BME280;27576;53.366;-1.498;2022-11-15T09:14:11;97904.91;;;8.66;100.00
41898;BME280;27576;53.366;-1.498;2022-11-15T09:16:37;97921.78;;;8.82;100.00
41898;BME280;27576;53.366;-1.498;2022-11-15T09:19:03;97908.22;;;8.73;100.00
41898;BME280;27576;53.366;-1.498;2022-11-15T09:21:29;97903.75;;;8.81;100.00
41898;BME280;27576;53.366;-1.498;2022-11-15T09:23:55;97914.84;;;8.86;100.00
41898;BME280;27576;53.366;-1.498;2022-11-15T09:26:20;97877.41;;;8.65;100.00
41898;BME280;27576;53.366;-1.498;2022-11-15T09:28:45;97870.31;;;8.75;100.00
41898;BME280;27576;53.366;-1.498;2022-11-15T09:31:11;97894.81;;;8.96;100.00
41898;BME280;27576;53.366;-1.498;2022-11-15T09:33:36;97895.63;;;8.99;100.00
41898;BME280;27576;53.366;-1.498;2022-11-15T09:36:07;97874.38;;;8.87;100.00
41898;BME280;27576;53.366;-1.498;2022-11-15T09:38:34;97885.38;;;8.95;100.00
41898;BME280;27576;53.366;-1.498;2022-11-15T09:41:25;97888.63;;;9.04;100.00
41898;BME280;27576;53.366;-1.498;2022-11-15T09:44:23;97879.22;;;9.02;100.00
41898;BME280;27576;53.366;-1.498;2022-11-15T09:49:21;97860.25;;;9.03;100.00
41898;BME280;27576;53.366;-1.498;2022-11-15T09:51:53;97872.09;;;9.13;100.00
41898;BME280;27576;53.366;-1.498;2022-11-15T09:54:34;97860.91;;;9.13;100.00
41898;BME280;27576;53.366;-1.498;2022-11-15T09:57:20;97854.00;;;9.13;100.00
41898;BME280;27576;53.366;-1.498;2022-11-15T10:05:04;97816.38;;;9.01;100.00
41898;BME280;27576;53.366;-1.498;2022-11-15T10:13:04;97810.25;;;9.05;100.00
41898;BME280;27576;53.366;-1.498;2022-11-15T10:15:29;97772.63;;;8.94;100.00
41898;BME280;27576;53.366;-1.498;2022-11-15T10:18:24;97811.53;;;9.23;100.00
41898;BME280;27576;53.366;-1.498;2022-11-15T10:21:15;97790.31;;;9.12;100.00
41898;BME280;27576;53.366;-1.498;2022-11-15T10:23:41;97768.88;;;9.07;100.00
41898;BME280;27576;53.366;-1.498;2022-11-15T10:26:11;97760.34;;;9.03;100.00
41898;BME280;27576;53.366;-1.498;2022-11-15T10:28:38;97766.09;;;9.16;100.00
41898;BME280;27576;53.366;-1.498;2022-11-15T10:31:21;97783.75;;;9.33;100.00
41898;BME280;27576;53.366;-1.498;2022-11-15T10:33:47;97753.94;;;9.20;100.00
41898;BME280;27576;53.366;-1.498;2022-11-15T10:41:38;97722.19;;;9.16;100.00
41898;BME280;27576;53.366;-1.498;2022-11-15T10:46:38;97742.94;;;9.46;100.00
41898;BME280;27576;53.366;-1.498;2022-11-15T10:49:24;97734.28;;;9.47;100.00
41898;BME280;27576;53.366;-1.498;2022-11-15T10:54:55;97717.03;;;9.49;100.00
41898;BME280;27576;53.366;-1.498;2022-11-15T10:57:28;97683.81;;;9.33;100.00
41898;BME280;27576;53.366;-1.498;2022-11-15T10:59:57;97716.97;;;9.52;100.00
41898;BME280;27576;53.366;-1.498;2022-11-15T11:02:38;97708.56;;;9.44;100.00
41898;BME280;27576;53.366;-1.498;2022-11-15T11:05:25;97710.88;;;9.53;100.00
41898;BME280;27576;53.366;-1.498;2022-11-15T11:07:56;97712.63;;;9.52;100.00
41898;BME280;27576;53.366;-1.498;2022-11-15T11:10:22;97696.63;;;9.38;100.00
41898;BME280;27576;53.366;-1.498;2022-11-15T11:12:48;97687.91;;;9.42;100.00
41898;BME280;27576;53.366;-1.498;2022-11-15T11:15:15;97678.25;;;9.49;100.00
41898;BME280;27576;53.366;-1.498;2022-11-15T11:18:05;97676.38;;;9.55;100.00
41898;BME280;27576;53.366;-1.498;2022-11-15T11:20:40;97664.31;;;9.54;100.00
41898;BME280;27576;53.366;-1.498;2022-11-15T11:26:01;97642.16;;;9.46;100.00
41898;BME280;27576;53.366;-1.498;2022-11-15T11:37:12;97645.06;;;9.65;100.00
41898;BME280;27576;53.366;-1.498;2022-11-15T11:47:47;97603.13;;;9.55;100.00
41898;BME280;27576;53.366;-1.498;2022-11-15T11:50:20;97604.63;;;9.62;100.00
41898;BME280;27576;53.366;-1.498;2022-11-15T11:52:59;97591.00;;;9.57;100.00
41898;BME280;27576;53.366;-1.498;2022-11-15T11:55:37;97602.72;;;9.69;100.00
41898;BME280;27576;53.366;-1.498;2022-11-15T11:58:26;97607.75;;;9.73;100.00
41898;BME280;27576;53.366;-1.498;2022-11-15T12:09:19;97582.97;;;9.66;100.00
41898;BME280;27576;53.366;-1.498;2022-11-15T12:11:55;97602.38;;;9.81;100.00
41898;BME280;27576;53.366;-1.498;2022-11-15T12:14:43;97599.94;;;9.76;100.00
41898;BME280;27576;53.366;-1.498;2022-11-15T12:17:11;97602.34;;;9.82;100.00
41898;BME280;27576;53.366;-1.498;2022-11-15T12:19:38;97574.34;;;9.67;100.00
41898;BME280;27576;53.366;-1.498;2022-11-15T12:22:20;97600.56;;;9.84;100.00
41898;BME280;27576;53.366;-1.498;2022-11-15T12:25:05;97573.25;;;9.74;100.00
41898;BME280;27576;53.366;-1.498;2022-11-15T12:27:46;97581.53;;;9.86;100.00
41898;BME280;27576;53.366;-1.498;2022-11-15T12:30:15;97588.53;;;9.83;100.00
41898;BME280;27576;53.366;-1.498;2022-11-15T12:32:54;97587.47;;;9.89;100.00
41898;BME280;27576;53.366;-1.498;2022-11-15T12:35:34;97540.84;;;9.63;100.00
41898;BME280;27576;53.366;-1.498;2022-11-15T12:38:00;97515.41;;;9.49;100.00
41898;BME280;27576;53.366;-1.498;2022-11-15T12:40:27;97577.94;;;9.91;100.00
41898;BME280;27576;53.366;-1.498;2022-11-15T12:45:39;97570.94;;;9.95;100.00
41898;BME280;27576;53.366;-1.498;2022-11-15T13:04:23;97522.66;;;9.94;100.00
41898;BME280;27576;53.366;-1.498;2022-11-15T13:12:08;97538.78;;;10.03;100.00
41898;BME280;27576;53.366;-1.498;2022-11-15T13:28:00;97481.19;;;9.97;100.00
41898;BME280;27576;53.366;-1.498;2022-11-15T13:30:28;97504.06;;;10.11;100.00
41898;BME280;27576;53.366;-1.498;2022-11-15T13:32:55;97498.75;;;10.14;100.00
41898;BME280;27576;53.366;-1.498;2022-11-15T13:35:26;97463.94;;;9.97;100.00
41898;BME280;27576;53.366;-1.498;2022-11-15T13:37:54;97495.22;;;10.16;100.00
41898;BME280;27576;53.366;-1.498;2022-11-15T13:40:28;97480.09;;;10.04;100.00
41898;BME280;27576;53.366;-1.498;2022-11-15T13:42:56;97506.41;;;10.18;100.00
41898;BME280;27576;53.366;-1.498;2022-11-15T13:45:23;97492.56;;;10.19;100.00
41898;BME280;27576;53.366;-1.498;2022-11-15T13:47:57;97480.63;;;10.15;100.00
41898;BME280;27576;53.366;-1.498;2022-11-15T13:50:27;97463.59;;;10.08;100.00
41898;BME280;27576;53.366;-1.498;2022-11-15T13:52:57;97479.47;;;10.24;100.00
41898;BME280;27576;53.366;-1.498;2022-11-15T13:55:25;97487.19;;;10.25;100.00
41898;BME280;27576;53.366;-1.498;2022-11-15T13:57:58;97461.28;;;10.27;100.00
41898;BME280;27576;53.366;-1.498;2022-11-15T14:03:15;97440.59;;;10.27;100.00
41898;BME280;27576;53.366;-1.498;2022-11-15T14:05:43;97433.66;;;10.27;100.00
41898;BME280;27576;53.366;-1.498;2022-11-15T14:08:26;97438.50;;;10.37;100.00
41898;BME280;27576;53.366;-1.498;2022-11-15T14:11:18;97452.75;;;10.50;100.00
41898;BME280;27576;53.366;-1.498;2022-11-15T14:14:20;97435.47;;;10.50;100.00
41898;BME280;27576;53.366;-1.498;2022-11-15T14:17:00;97385.31;;;10.28;100.00
41898;BME280;27576;53.366;-1.498;2022-11-15T14:24:44;97458.69;;;10.52;100.00
41898;BME280;27576;53.366;-1.498;2022-11-15T14:27:29;97461.19;;;10.55;100.00
41898;BME280;27576;53.366;-1.498;2022-11-15T14:29:55;97467.16;;;10.57;100.00
41898;BME280;27576;53.366;-1.498;2022-11-15T14:32:29;97421.31;;;10.36;100.00
41898;BME280;27576;53.366;-1.498;2022-11-15T14:35:00;97456.09;;;10.53;100.00
41898;BME280;27576;53.366;-1.498;2022-11-15T14:37:28;97466.28;;;10.58;100.00
41898;BME280;27576;53.366;-1.498;2022-11-15T14:39:54;97466.28;;;10.58;100.00
41898;BME280;27576;53.366;-1.498;2022-11-15T14:42:21;97463.72;;;10.56;100.00
41898;BME280;27576;53.366;-1.498;2022-11-15T14:44:47;97428.16;;;10.37;100.00
41898;BME280;27576;53.366;-1.498;2022-11-15T14:47:12;97451.75;;;10.54;100.00
41898;BME280;27576;53.366;-1.498;2022-11-15T14:49:38;97456.91;;;10.54;100.00
41898;BME280;27576;53.366;-1.498;2022-11-15T14:52:15;97431.91;;;10.28;100.00
41898;BME280;27576;53.366;-1.498;2022-11-15T14:54:42;97444.66;;;10.34;100.00
41898;BME280;27576;53.366;-1.498;2022-11-15T14:57:07;97473.56;;;10.47;100.00
41898;BME280;27576;53.366;-1.498;2022-11-15T14:59:32;97449.13;;;10.29;100.00
41898;BME280;27576;53.366;-1.498;2022-11-15T15:01:58;97451.78;;;10.27;100.00
41898;BME280;27576;53.366;-1.498;2022-11-15T15:04:24;97485.75;;;10.43;100.00
41898;BME280;27576;53.366;-1.498;2022-11-15T15:06:49;97465.56;;;10.28;100.00
41898;BME280;27576;53.366;-1.498;2022-11-15T15:09:14;97447.97;;;10.11;100.00
41898;BME280;27576;53.366;-1.498;2022-11-15T15:11:40;97499.88;;;10.33;100.00